sensor_id;sensor_type;location;lat;lon;timestamp;P1;durP1;ratioP1;P2;durP2;ratioP2
12228;SDS011;6177;52.402;9.800;2023-11-22T00:00:43;4.87;;;4.57;;
12228;SDS011;6177;52.402;9.800;2023-11-22T00:03:09;5.17;;;4.50;;
12228;SDS011;6177;52.402;9.800;2023-11-22T00:05:34;4.87;;;4.50;;
12228;SDS011;6177;52.402;9.800;2023-11-22T00:08:00;5.10;;;4.40;;
12228;SDS011;6177;52.402;9.800;2023-11-22T00:10:25;5.30;;;5.00;;
12228;SDS011;6177;52.402;9.800;2023-11-22T00:12:51;4.47;;;4.23;;
12228;SDS011;6177;52.402;9.800;2023-11-22T00:15:16;4.90;;;4.53;;
12228;SDS011;6177;52.402;9.800;2023-11-22T00:17:46;4.13;;;3.93;;
12228;SDS011;6177;52.402;9.800;2023-11-22T00:20:12;5.33;;;4.63;;
12228;SDS011;6177;52.402;9.800;2023-11-22T00:22:38;5.40;;;4.83;;
12228;SDS011;6177;52.402;9.800;2023-11-22T00:25:04;5.43;;;4.70;;
12228;SDS011;6177;52.402;9.800;2023-11-22T00:27:30;5.70;;;5.30;;
12228;SDS011;6177;52.402;9.800;2023-11-22T00:29:56;5.93;;;5.00;;
12228;SDS011;6177;52.402;9.800;2023-11-22T00:32:23;5.03;;;4.73;;
12228;SDS011;6177;52.402;9.800;2023-11-22T00:34:49;5.80;;;5.07;;
12228;SDS011;6177;52.402;9.800;2023-11-22T00:37:15;7.30;;;5.07;;
12228;SDS011;6177;52.402;9.800;2023-11-22T00:39:41;5.33;;;4.90;;
12228;SDS011;6177;52.402;9.800;2023-11-22T00:42:07;5.40;;;5.00;;
12228;SDS011;6177;52.402;9.800;2023-11-22T00:44:33;4.83;;;4.53;;
12228;SDS011;6177;52.402;9.800;2023-11-22T00:46:58;5.07;;;4.60;;
12228;SDS011;6177;52.402;9.800;2023-11-22T00:49:24;5.40;;;5.00;;
12228;SDS011;6177;52.402;9.800;2023-11-22T00:51:49;5.60;;;5.10;;
12228;SDS011;6177;52.402;9.800;2023-11-22T00:54:16;5.53;;;5.00;;
12228;SDS011;6177;52.402;9.800;2023-11-22T00:56:42;5.70;;;5.20;;
12228;SDS011;6177;52.402;9.800;2023-11-22T00:59:07;5.07;;;4.77;;
12228;SDS011;6177;52.402;9.800;2023-11-22T01:01:33;6.00;;;5.50;;
12228;SDS011;6177;52.402;9.800;2023-11-22T01:03:59;5.03;;;4.57;;
12228;SDS011;6177;52.402;9.800;2023-11-22T01:06:25;5.03;;;4.47;;
12228;SDS011;6177;52.402;9.800;2023-11-22T01:08:51;6.00;;;5.40;;
12228;SDS011;6177;52.402;9.800;2023-11-22T01:11:16;5.67;;;5.17;;
12228;SDS011;6177;52.402;9.800;2023-11-22T01:13:42;6.67;;;4.93;;
12228;SDS011;6177;52.402;9.800;2023-11-22T01:16:11;5.93;;;5.43;;
12228;SDS011;6177;52.402;9.800;2023-11-22T01:18:37;7.77;;;5.33;;
12228;SDS011;6177;52.402;9.800;2023-11-22T01:21:03;5.60;;;5.20;;
12228;SDS011;6177;52.402;9.800;2023-11-22T01:23:32;5.57;;;5.07;;
12228;SDS011;6177;52.402;9.800;2023-11-22T01:25:58;5.23;;;4.83;;
12228;SDS011;6177;52.402;9.800;2023-11-22T01:28:24;5.30;;;4.63;;
12228;SDS011;6177;52.402;9.800;2023-11-22T01:30:52;5.97;;;5.17;;
12228;SDS011;6177;52.402;9.800;2023-11-22T01:33:21;5.33;;;4.83;;
12228;SDS011;6177;52.402;9.800;2023-11-22T01:35:47;4.63;;;4.33;;
12228;SDS011;6177;52.402;9.800;2023-11-22T01:38:13;6.33;;;5.50;;
12228;SDS011;6177;52.402;9.800;2023-11-22T01:40:43;5.87;;;4.90;;
12228;SDS011;6177;52.402;9.800;2023-11-22T01:43:12;5.17;;;4.60;;
12228;SDS011;6177;52.402;9.800;2023-11-22T01:45:44;5.73;;;5.23;;
12228;SDS011;6177;52.402;9.800;2023-11-22T01:48:11;6.80;;;4.87;;
12228;SDS011;6177;52.402;9.800;2023-11-22T01:50:37;5.27;;;4.77;;
12228;SDS011;6177;52.402;9.800;2023-11-22T01:53:07;6.47;;;5.60;;
12228;SDS011;6177;52.402;9.800;2023-11-22T01:55:34;5.60;;;4.87;;
12228;SDS011;6177;52.402;9.800;2023-11-22T01:58:00;5.73;;;5.23;;
12228;SDS011;6177;52.402;9.800;2023-11-22T02:00:27;5.80;;;5.30;;
12228;SDS011;6177;52.402;9.800;2023-11-22T02:02:57;5.87;;;5.27;;
12228;SDS011;6177;52.402;9.800;2023-11-22T02:05:24;6.23;;;5.50;;
12228;SDS011;6177;52.402;9.800;2023-11-22T02:07:49;5.33;;;5.03;;
12228;SDS011;6177;52.402;9.800;2023-11-22T02:10:15;6.37;;;5.67;;
12228;SDS011;6177;52.402;9.800;2023-11-22T02:12:41;5.97;;;5.37;;
12228;SDS011;6177;52.402;9.800;2023-11-22T02:15:08;5.50;;;5.00;;
12228;SDS011;6177;52.402;9.800;2023-11-22T02:17:33;5.43;;;5.03;;
12228;SDS011;6177;52.402;9.800;2023-11-22T02:19:59;6.17;;;5.20;;
12228;SDS011;6177;52.402;9.800;2023-11-22T02:22:25;6.03;;;5.43;;
12228;SDS011;6177;52.402;9.800;2023-11-22T02:24:50;5.80;;;5.30;;
12228;SDS011;6177;52.402;9.800;2023-11-22T02:27:16;5.33;;;5.03;;
12228;SDS011;6177;52.402;9.800;2023-11-22T02:29:41;5.90;;;5.00;;
12228;SDS011;6177;52.402;9.800;2023-11-22T02:32:07;5.73;;;5.23;;
12228;SDS011;6177;52.402;9.800;2023-11-22T02:34:33;5.47;;;4.77;;
12228;SDS011;6177;52.402;9.800;2023-11-22T02:36:58;7.53;;;5.70;;
12228;SDS011;6177;52.402;9.800;2023-11-22T02:39:27;6.77;;;5.60;;
12228;SDS011;6177;52.402;9.800;2023-11-22T02:41:58;6.17;;;5.57;;
12228;SDS011;6177;52.402;9.800;2023-11-22T02:44:24;5.47;;;4.97;;
12228;SDS011;6177;52.402;9.800;2023-11-22T02:46:49;5.63;;;5.13;;
12228;SDS011;6177;52.402;9.800;2023-11-22T02:49:15;5.73;;;5.23;;
12228;SDS011;6177;52.402;9.800;2023-11-22T02:51:40;6.77;;;4.83;;
12228;SDS011;6177;52.402;9.800;2023-11-22T02:54:06;5.70;;;5.20;;
12228;SDS011;6177;52.402;9.800;2023-11-22T02:56:31;5.70;;;4.97;;
12228;SDS011;6177;52.402;9.800;2023-11-22T02:58:57;5.40;;;4.90;;
12228;SDS011;6177;52.402;9.800;2023-11-22T03:01:22;5.23;;;4.73;;
12228;SDS011;6177;52.402;9.800;2023-11-22T03:03:48;5.40;;;4.93;;
12228;SDS011;6177;52.402;9.800;2023-11-22T03:06:13;5.43;;;5.00;;
12228;SDS011;6177;52.402;9.800;2023-11-22T03:08:39;4.67;;;4.30;;
12228;SDS011;6177;52.402;9.800;2023-11-22T03:11:04;5.40;;;4.90;;
12228;SDS011;6177;52.402;9.800;2023-11-22T03:13:31;5.07;;;4.57;;
12228;SDS011;6177;52.402;9.800;2023-11-22T03:15:56;4.83;;;4.43;;
12228;SDS011;6177;52.402;9.800;2023-11-22T03:18:22;7.90;;;5.60;;
12228;SDS011;6177;52.402;9.800;2023-11-22T03:20:47;4.87;;;4.20;;
12228;SDS011;6177;52.402;9.800;2023-11-22T03:23:13;4.90;;;4.50;;
12228;SDS011;6177;52.402;9.800;2023-11-22T03:25:42;4.73;;;4.33;;
12228;SDS011;6177;52.402;9.800;2023-11-22T03:28:07;5.20;;;4.70;;
12228;SDS011;6177;52.402;9.800;2023-11-22T03:30:33;4.37;;;4.07;;
12228;SDS011;6177;52.402;9.800;2023-11-22T03:32:58;4.60;;;4.30;;
12228;SDS011;6177;52.402;9.800;2023-11-22T03:35:24;6.80;;;4.30;;
12228;SDS011;6177;52.402;9.800;2023-11-22T03:37:49;4.23;;;3.93;;
12228;SDS011;6177;52.402;9.800;2023-11-22T03:40:15;5.40;;;4.33;;
12228;SDS011;6177;52.402;9.800;2023-11-22T03:42:41;4.67;;;4.27;;
12228;SDS011;6177;52.402;9.800;2023-11-22T03:45:07;4.33;;;4.07;;
12228;SDS011;6177;52.402;9.800;2023-11-22T03:47:32;4.10;;;3.80;;
12228;SDS011;6177;52.402;9.800;2023-11-22T03:49:58;4.20;;;4.00;;
12228;SDS011;6177;52.402;9.800;2023-11-22T03:52:25;3.97;;;3.50;;
12228;SDS011;6177;52.402;9.800;2023-11-22T03:54:52;4.43;;;4.03;;
12228;SDS011;6177;52.402;9.800;2023-11-22T03:57:17;4.63;;;4.23;;
12228;SDS011;6177;52.402;9.800;2023-11-22T03:59:43;3.83;;;3.60;;
12228;SDS011;6177;52.402;9.800;2023-11-22T04:02:08;4.10;;;3.90;;
12228;SDS011;6177;52.402;9.800;2023-11-22T04:04:35;4.10;;;3.87;;
12228;SDS011;6177;52.402;9.800;2023-11-22T04:07:01;6.03;;;4.10;;
12228;SDS011;6177;52.402;9.800;2023-11-22T04:09:27;4.53;;;4.23;;
12228;SDS011;6177;52.402;9.800;2023-11-22T04:11:54;3.87;;;3.67;;
12228;SDS011;6177;52.402;9.800;2023-11-22T04:14:20;4.87;;;3.93;;
12228;SDS011;6177;52.402;9.800;2023-11-22T04:16:46;4.40;;;4.00;;
12228;SDS011;6177;52.402;9.800;2023-11-22T04:19:12;3.90;;;3.60;;
12228;SDS011;6177;52.402;9.800;2023-11-22T04:21:37;4.47;;;4.00;;
12228;SDS011;6177;52.402;9.800;2023-11-22T04:24:03;3.57;;;3.37;;
12228;SDS011;6177;52.402;9.800;2023-11-22T04:26:29;4.13;;;3.83;;
12228;SDS011;6177;52.402;9.800;2023-11-22T04:28:55;4.23;;;3.90;;
12228;SDS011;6177;52.402;9.800;2023-11-22T04:31:20;4.30;;;4.00;;
12228;SDS011;6177;52.402;9.800;2023-11-22T04:33:46;4.20;;;3.80;;
12228;SDS011;6177;52.402;9.800;2023-11-22T04:36:11;3.57;;;3.37;;
12228;SDS011;6177;52.402;9.800;2023-11-22T04:38:37;4.37;;;3.97;;
12228;SDS011;6177;52.402;9.800;2023-11-22T04:41:03;4.43;;;4.03;;
12228;SDS011;6177;52.402;9.800;2023-11-22T04:43:28;4.17;;;3.87;;
12228;SDS011;6177;52.402;9.800;2023-11-22T04:45:54;4.17;;;3.87;;
12228;SDS011;6177;52.402;9.800;2023-11-22T04:48:20;4.33;;;3.73;;
12228;SDS011;6177;52.402;9.800;2023-11-22T04:50:45;4.40;;;4.10;;
12228;SDS011;6177;52.402;9.800;2023-11-22T04:53:10;4.17;;;3.87;;
12228;SDS011;6177;52.402;9.800;2023-11-22T04:55:36;4.03;;;3.73;;
12228;SDS011;6177;52.402;9.800;2023-11-22T04:58:02;4.97;;;4.50;;
12228;SDS011;6177;52.402;9.800;2023-11-22T05:00:28;4.97;;;4.47;;
12228;SDS011;6177;52.402;9.800;2023-11-22T05:02:53;4.83;;;4.53;;
12228;SDS011;6177;52.402;9.800;2023-11-22T05:05:19;5.73;;;3.87;;
12228;SDS011;6177;52.402;9.800;2023-11-22T05:07:45;4.23;;;4.03;;
12228;SDS011;6177;52.402;9.800;2023-11-22T05:10:10;5.73;;;3.97;;
12228;SDS011;6177;52.402;9.800;2023-11-22T05:12:36;4.57;;;4.17;;
12228;SDS011;6177;52.402;9.800;2023-11-22T05:15:02;4.37;;;4.03;;
12228;SDS011;6177;52.402;9.800;2023-11-22T05:17:28;4.47;;;4.07;;
12228;SDS011;6177;52.402;9.800;2023-11-22T05:19:53;5.57;;;4.27;;
12228;SDS011;6177;52.402;9.800;2023-11-22T05:22:19;4.33;;;3.93;;
12228;SDS011;6177;52.402;9.800;2023-11-22T05:24:44;4.93;;;4.53;;
12228;SDS011;6177;52.402;9.800;2023-11-22T05:27:10;6.07;;;5.20;;
12228;SDS011;6177;52.402;9.800;2023-11-22T05:29:36;5.83;;;4.90;;
12228;SDS011;6177;52.402;9.800;2023-11-22T05:32:02;6.10;;;5.47;;
12228;SDS011;6177;52.402;9.800;2023-11-22T05:34:28;5.23;;;4.73;;
12228;SDS011;6177;52.402;9.800;2023-11-22T05:36:54;5.67;;;5.20;;
12228;SDS011;6177;52.402;9.800;2023-11-22T05:39:20;6.07;;;5.30;;
12228;SDS011;6177;52.402;9.800;2023-11-22T05:41:47;5.13;;;4.70;;
12228;SDS011;6177;52.402;9.800;2023-11-22T05:44:13;5.70;;;5.20;;
12228;SDS011;6177;52.402;9.800;2023-11-22T05:46:39;5.80;;;4.17;;
12228;SDS011;6177;52.402;9.800;2023-11-22T05:49:05;4.70;;;4.17;;
12228;SDS011;6177;52.402;9.800;2023-11-22T05:51:30;4.60;;;4.30;;
12228;SDS011;6177;52.402;9.800;2023-11-22T05:53:56;6.23;;;4.53;;
12228;SDS011;6177;52.402;9.800;2023-11-22T05:56:21;4.07;;;3.77;;
12228;SDS011;6177;52.402;9.800;2023-11-22T05:58:47;4.80;;;4.43;;
12228;SDS011;6177;52.402;9.800;2023-11-22T06:01:13;5.03;;;4.63;;
12228;SDS011;6177;52.402;9.800;2023-11-22T06:03:39;5.93;;;4.57;;
12228;SDS011;6177;52.402;9.800;2023-11-22T06:06:05;4.60;;;4.17;;
12228;SDS011;6177;52.402;9.800;2023-11-22T06:08:31;4.73;;;4.43;;
12228;SDS011;6177;52.402;9.800;2023-11-22T06:10:57;4.77;;;4.37;;
12228;SDS011;6177;52.402;9.800;2023-11-22T06:13:24;4.70;;;4.30;;
12228;SDS011;6177;52.402;9.800;2023-11-22T06:15:50;4.97;;;4.20;;
12228;SDS011;6177;52.402;9.800;2023-11-22T06:18:15;9.93;;;6.27;;
12228;SDS011;6177;52.402;9.800;2023-11-22T06:20:41;4.40;;;4.10;;
12228;SDS011;6177;52.402;9.800;2023-11-22T06:23:07;4.80;;;4.40;;
12228;SDS011;6177;52.402;9.800;2023-11-22T06:25:33;4.70;;;4.30;;
12228;SDS011;6177;52.402;9.800;2023-11-22T06:28:02;5.50;;;4.90;;
12228;SDS011;6177;52.402;9.800;2023-11-22T06:30:28;4.60;;;4.20;;
12228;SDS011;6177;52.402;9.800;2023-11-22T06:32:55;5.23;;;4.70;;
12228;SDS011;6177;52.402;9.800;2023-11-22T06:35:21;5.60;;;5.10;;
12228;SDS011;6177;52.402;9.800;2023-11-22T06:37:46;5.63;;;5.23;;
12228;SDS011;6177;52.402;9.800;2023-11-22T06:40:12;5.63;;;5.17;;
12228;SDS011;6177;52.402;9.800;2023-11-22T06:42:37;6.03;;;5.50;;
12228;SDS011;6177;52.402;9.800;2023-11-22T06:45:04;5.13;;;4.77;;
12228;SDS011;6177;52.402;9.800;2023-11-22T06:47:32;6.00;;;5.40;;
12228;SDS011;6177;52.402;9.800;2023-11-22T06:49:57;5.40;;;5.00;;
12228;SDS011;6177;52.402;9.800;2023-11-22T06:52:23;5.43;;;4.93;;
12228;SDS011;6177;52.402;9.800;2023-11-22T06:54:49;5.80;;;5.00;;
12228;SDS011;6177;52.402;9.800;2023-11-22T06:57:14;6.23;;;5.20;;
12228;SDS011;6177;52.402;9.800;2023-11-22T06:59:40;5.23;;;4.67;;
12228;SDS011;6177;52.402;9.800;2023-11-22T07:02:06;5.70;;;5.10;;
12228;SDS011;6177;52.402;9.800;2023-11-22T07:04:32;4.90;;;4.50;;
12228;SDS011;6177;52.402;9.800;2023-11-22T07:06:58;5.83;;;5.30;;
12228;SDS011;6177;52.402;9.800;2023-11-22T07:09:23;9.47;;;5.80;;
12228;SDS011;6177;52.402;9.800;2023-11-22T07:11:50;4.83;;;4.50;;
12228;SDS011;6177;52.402;9.800;2023-11-22T07:14:17;5.53;;;5.13;;
12228;SDS011;6177;52.402;9.800;2023-11-22T07:16:42;5.50;;;4.70;;
12228;SDS011;6177;52.402;9.800;2023-11-22T07:19:08;6.63;;;6.03;;
12228;SDS011;6177;52.402;9.800;2023-11-22T07:21:33;5.33;;;4.90;;
12228;SDS011;6177;52.402;9.800;2023-11-22T07:24:03;5.27;;;4.77;;
12228;SDS011;6177;52.402;9.800;2023-11-22T07:26:32;5.47;;;5.07;;
12228;SDS011;6177;52.402;9.800;2023-11-22T07:28:58;5.30;;;4.90;;
12228;SDS011;6177;52.402;9.800;2023-11-22T07:31:24;5.00;;;4.60;;
12228;SDS011;6177;52.402;9.800;2023-11-22T07:33:50;8.60;;;5.20;;
12228;SDS011;6177;52.402;9.800;2023-11-22T07:36:16;5.10;;;4.60;;
12228;SDS011;6177;52.402;9.800;2023-11-22T07:38:42;6.13;;;5.50;;
12228;SDS011;6177;52.402;9.800;2023-11-22T07:41:11;5.27;;;4.90;;
12228;SDS011;6177;52.402;9.800;2023-11-22T07:43:37;4.90;;;4.50;;
12228;SDS011;6177;52.402;9.800;2023-11-22T07:46:08;4.57;;;4.17;;
12228;SDS011;6177;52.402;9.800;2023-11-22T07:48:40;4.53;;;4.17;;
12228;SDS011;6177;52.402;9.800;2023-11-22T07:51:07;4.57;;;4.20;;
12228;SDS011;6177;52.402;9.800;2023-11-22T07:53:33;4.70;;;4.40;;
12228;SDS011;6177;52.402;9.800;2023-11-22T07:56:02;5.07;;;4.30;;
12228;SDS011;6177;52.402;9.800;2023-11-22T07:58:32;4.37;;;3.77;;
12228;SDS011;6177;52.402;9.800;2023-11-22T08:00:58;4.93;;;3.87;;
12228;SDS011;6177;52.402;9.800;2023-11-22T08:03:24;4.27;;;3.97;;
12228;SDS011;6177;52.402;9.800;2023-11-22T08:05:51;5.03;;;4.50;;
12228;SDS011;6177;52.402;9.800;2023-11-22T08:08:20;4.73;;;4.27;;
12228;SDS011;6177;52.402;9.800;2023-11-22T08:10:49;4.70;;;4.37;;
12228;SDS011;6177;52.402;9.800;2023-11-22T08:13:19;4.57;;;4.30;;
12228;SDS011;6177;52.402;9.800;2023-11-22T08:15:47;4.70;;;4.30;;
12228;SDS011;6177;52.402;9.800;2023-11-22T08:18:13;3.73;;;3.53;;
12228;SDS011;6177;52.402;9.800;2023-11-22T08:20:39;4.67;;;4.37;;
12228;SDS011;6177;52.402;9.800;2023-11-22T08:23:05;4.50;;;4.20;;
12228;SDS011;6177;52.402;9.800;2023-11-22T08:25:31;4.83;;;4.43;;
12228;SDS011;6177;52.402;9.800;2023-11-22T08:27:57;3.87;;;3.63;;
12228;SDS011;6177;52.402;9.800;2023-11-22T08:30:23;3.43;;;3.30;;
12228;SDS011;6177;52.402;9.800;2023-11-22T08:32:48;4.00;;;3.70;;
12228;SDS011;6177;52.402;9.800;2023-11-22T08:35:19;3.87;;;3.67;;
12228;SDS011;6177;52.402;9.800;2023-11-22T08:37:47;3.97;;;3.63;;
12228;SDS011;6177;52.402;9.800;2023-11-22T08:40:12;4.50;;;3.80;;
12228;SDS011;6177;52.402;9.800;2023-11-22T08:42:41;4.40;;;4.00;;
12228;SDS011;6177;52.402;9.800;2023-11-22T08:45:07;4.10;;;3.80;;
12228;SDS011;6177;52.402;9.800;2023-11-22T08:47:33;3.87;;;3.67;;
12228;SDS011;6177;52.402;9.800;2023-11-22T08:49:59;3.87;;;3.57;;
12228;SDS011;6177;52.402;9.800;2023-11-22T08:52:28;3.70;;;3.50;;
12228;SDS011;6177;52.402;9.800;2023-11-22T08:54:56;3.47;;;3.17;;
12228;SDS011;6177;52.402;9.800;2023-11-22T08:57:22;3.70;;;3.40;;
12228;SDS011;6177;52.402;9.800;2023-11-22T08:59:47;3.67;;;3.37;;
12228;SDS011;6177;52.402;9.800;2023-11-22T09:02:13;3.83;;;3.53;;
12228;SDS011;6177;52.402;9.800;2023-11-22T09:04:40;4.50;;;3.40;;
12228;SDS011;6177;52.402;9.800;2023-11-22T09:07:07;3.50;;;3.30;;
12228;SDS011;6177;52.402;9.800;2023-11-22T09:09:32;3.83;;;3.53;;
12228;SDS011;6177;52.402;9.800;2023-11-22T09:12:00;3.00;;;2.90;;
12228;SDS011;6177;52.402;9.800;2023-11-22T09:14:26;3.33;;;3.03;;
12228;SDS011;6177;52.402;9.800;2023-11-22T09:16:51;4.53;;;3.70;;
12228;SDS011;6177;52.402;9.800;2023-11-22T09:19:21;4.30;;;3.90;;
12228;SDS011;6177;52.402;9.800;2023-11-22T09:21:46;4.20;;;3.90;;
12228;SDS011;6177;52.402;9.800;2023-11-22T09:24:12;6.23;;;4.27;;
12228;SDS011;6177;52.402;9.800;2023-11-22T09:26:37;8.07;;;4.50;;
12228;SDS011;6177;52.402;9.800;2023-11-22T09:29:03;5.47;;;3.83;;
12228;SDS011;6177;52.402;9.800;2023-11-22T09:31:29;5.80;;;4.10;;
12228;SDS011;6177;52.402;9.800;2023-11-22T09:33:55;7.67;;;4.70;;
12228;SDS011;6177;52.402;9.800;2023-11-22T09:36:22;9.60;;;8.33;;
12228;SDS011;6177;52.402;9.800;2023-11-22T09:38:49;5.67;;;4.13;;
12228;SDS011;6177;52.402;9.800;2023-11-22T09:41:15;4.53;;;4.13;;
12228;SDS011;6177;52.402;9.800;2023-11-22T09:43:42;5.80;;;3.83;;
12228;SDS011;6177;52.402;9.800;2023-11-22T09:46:09;22.13;;;19.87;;
12228;SDS011;6177;52.402;9.800;2023-11-22T09:48:36;3.83;;;3.37;;
12228;SDS011;6177;52.402;9.800;2023-11-22T09:53:36;9.40;;;5.00;;
12228;SDS011;6177;52.402;9.800;2023-11-22T09:56:06;10.57;;;6.77;;
12228;SDS011;6177;52.402;9.800;2023-11-22T09:58:33;9.33;;;7.33;;
12228;SDS011;6177;52.402;9.800;2023-11-22T10:01:00;8.53;;;7.03;;
12228;SDS011;6177;52.402;9.800;2023-11-22T10:03:26;9.07;;;6.30;;
12228;SDS011;6177;52.402;9.800;2023-11-22T10:05:56;4.80;;;4.40;;
12228;SDS011;6177;52.402;9.800;2023-11-22T10:08:24;5.10;;;4.70;;
12228;SDS011;6177;52.402;9.800;2023-11-22T10:10:50;5.33;;;4.30;;
12228;SDS011;6177;52.402;9.800;2023-11-22T10:13:22;4.63;;;4.20;;
12228;SDS011;6177;52.402;9.800;2023-11-22T10:15:48;4.80;;;4.40;;
12228;SDS011;6177;52.402;9.800;2023-11-22T10:18:14;4.50;;;4.13;;
12228;SDS011;6177;52.402;9.800;2023-11-22T10:20:41;4.60;;;4.10;;
12228;SDS011;6177;52.402;9.800;2023-11-22T10:23:11;4.83;;;4.40;;
12228;SDS011;6177;52.402;9.800;2023-11-22T10:28:15;4.20;;;3.87;;
12228;SDS011;6177;52.402;9.800;2023-11-22T10:30:51;3.97;;;3.77;;
12228;SDS011;6177;52.402;9.800;2023-11-22T10:33:17;4.53;;;4.13;;
12228;SDS011;6177;52.402;9.800;2023-11-22T10:35:49;3.90;;;3.60;;
12228;SDS011;6177;52.402;9.800;2023-11-22T10:38:16;4.03;;;3.73;;
12228;SDS011;6177;52.402;9.800;2023-11-22T10:40:43;4.73;;;4.10;;
12228;SDS011;6177;52.402;9.800;2023-11-22T10:43:16;4.33;;;3.93;;
12228;SDS011;6177;52.402;9.800;2023-11-22T10:45:42;4.63;;;4.10;;
12228;SDS011;6177;52.402;9.800;2023-11-22T10:48:14;6.50;;;4.37;;
12228;SDS011;6177;52.402;9.800;2023-11-22T10:50:41;5.03;;;4.40;;
12228;SDS011;6177;52.402;9.800;2023-11-22T10:53:08;6.77;;;4.40;;
12228;SDS011;6177;52.402;9.800;2023-11-22T10:55:38;9.93;;;5.20;;
12228;SDS011;6177;52.402;9.800;2023-11-22T10:58:07;10.50;;;5.20;;
12228;SDS011;6177;52.402;9.800;2023-11-22T11:00:33;11.93;;;5.30;;
12228;SDS011;6177;52.402;9.800;2023-11-22T11:03:03;12.23;;;5.73;;
12228;SDS011;6177;52.402;9.800;2023-11-22T11:05:34;11.47;;;5.43;;
12228;SDS011;6177;52.402;9.800;2023-11-22T11:08:12;11.83;;;6.37;;
12228;SDS011;6177;52.402;9.800;2023-11-22T11:10:39;7.10;;;5.03;;
12228;SDS011;6177;52.402;9.800;2023-11-22T11:13:06;10.43;;;5.27;;
12228;SDS011;6177;52.402;9.800;2023-11-22T11:15:34;11.50;;;5.40;;
12228;SDS011;6177;52.402;9.800;2023-11-22T11:18:03;10.57;;;5.30;;
12228;SDS011;6177;52.402;9.800;2023-11-22T11:20:44;11.63;;;6.17;;
12228;SDS011;6177;52.402;9.800;2023-11-22T11:23:20;8.73;;;5.37;;
12228;SDS011;6177;52.402;9.800;2023-11-22T11:25:50;5.03;;;4.50;;
12228;SDS011;6177;52.402;9.800;2023-11-22T11:28:19;5.00;;;4.23;;
12228;SDS011;6177;52.402;9.800;2023-11-22T11:30:47;5.90;;;5.20;;
12228;SDS011;6177;52.402;9.800;2023-11-22T11:33:17;15.80;;;6.50;;
12228;SDS011;6177;52.402;9.800;2023-11-22T11:35:54;16.60;;;6.67;;
12228;SDS011;6177;52.402;9.800;2023-11-22T11:38:26;13.70;;;6.87;;
12228;SDS011;6177;52.402;9.800;2023-11-22T11:40:56;15.50;;;5.93;;
12228;SDS011;6177;52.402;9.800;2023-11-22T11:43:42;11.90;;;5.37;;
12228;SDS011;6177;52.402;9.800;2023-11-22T11:46:10;16.57;;;6.43;;
12228;SDS011;6177;52.402;9.800;2023-11-22T11:48:37;24.17;;;7.70;;
12228;SDS011;6177;52.402;9.800;2023-11-22T11:51:02;12.97;;;6.23;;
12228;SDS011;6177;52.402;9.800;2023-11-22T11:53:28;12.33;;;5.30;;
12228;SDS011;6177;52.402;9.800;2023-11-22T11:55:56;6.30;;;4.67;;
12228;SDS011;6177;52.402;9.800;2023-11-22T11:58:23;6.00;;;5.17;;
12228;SDS011;6177;52.402;9.800;2023-11-22T12:00:50;5.50;;;5.00;;
12228;SDS011;6177;52.402;9.800;2023-11-22T12:03:18;7.03;;;5.40;;
12228;SDS011;6177;52.402;9.800;2023-11-22T12:05:46;5.53;;;5.03;;
12228;SDS011;6177;52.402;9.800;2023-11-22T12:08:14;8.93;;;4.83;;
12228;SDS011;6177;52.402;9.800;2023-11-22T12:10:42;5.63;;;5.13;;
12228;SDS011;6177;52.402;9.800;2023-11-22T12:13:09;5.00;;;4.50;;
12228;SDS011;6177;52.402;9.800;2023-11-22T12:15:34;5.07;;;4.67;;
12228;SDS011;6177;52.402;9.800;2023-11-22T12:18:00;5.10;;;4.70;;
12228;SDS011;6177;52.402;9.800;2023-11-22T12:20:26;4.60;;;4.30;;
12228;SDS011;6177;52.402;9.800;2023-11-22T12:22:59;5.00;;;4.70;;
12228;SDS011;6177;52.402;9.800;2023-11-22T12:25:29;4.17;;;3.97;;
12228;SDS011;6177;52.402;9.800;2023-11-22T12:27:54;4.53;;;4.13;;
12228;SDS011;6177;52.402;9.800;2023-11-22T12:30:33;5.20;;;4.80;;
12228;SDS011;6177;52.402;9.800;2023-11-22T12:33:00;4.77;;;4.57;;
12228;SDS011;6177;52.402;9.800;2023-11-22T12:35:27;4.13;;;3.93;;
12228;SDS011;6177;52.402;9.800;2023-11-22T12:37:53;4.23;;;4.03;;
12228;SDS011;6177;52.402;9.800;2023-11-22T12:40:20;3.77;;;3.57;;
12228;SDS011;6177;52.402;9.800;2023-11-22T12:42:49;4.40;;;4.10;;
12228;SDS011;6177;52.402;9.800;2023-11-22T12:45:22;4.20;;;3.90;;
12228;SDS011;6177;52.402;9.800;2023-11-22T12:47:50;4.70;;;4.43;;
12228;SDS011;6177;52.402;9.800;2023-11-22T12:50:32;4.20;;;4.10;;
12228;SDS011;6177;52.402;9.800;2023-11-22T12:53:08;3.93;;;3.70;;
12228;SDS011;6177;52.402;9.800;2023-11-22T12:55:36;4.97;;;4.60;;
12228;SDS011;6177;52.402;9.800;2023-11-22T12:58:02;4.70;;;4.40;;
12228;SDS011;6177;52.402;9.800;2023-11-22T13:00:29;4.77;;;4.37;;
12228;SDS011;6177;52.402;9.800;2023-11-22T13:02:55;4.63;;;4.40;;
12228;SDS011;6177;52.402;9.800;2023-11-22T13:05:24;5.03;;;4.70;;
12228;SDS011;6177;52.402;9.800;2023-11-22T13:07:49;4.90;;;4.50;;
12228;SDS011;6177;52.402;9.800;2023-11-22T13:10:15;5.03;;;4.67;;
12228;SDS011;6177;52.402;9.800;2023-11-22T13:12:42;5.60;;;5.20;;
12228;SDS011;6177;52.402;9.800;2023-11-22T13:15:12;5.00;;;4.60;;
12228;SDS011;6177;52.402;9.800;2023-11-22T13:17:38;4.50;;;4.27;;
12228;SDS011;6177;52.402;9.800;2023-11-22T13:20:07;5.00;;;4.60;;
12228;SDS011;6177;52.402;9.800;2023-11-22T13:22:40;6.13;;;4.87;;
12228;SDS011;6177;52.402;9.800;2023-11-22T13:25:09;5.10;;;4.63;;
12228;SDS011;6177;52.402;9.800;2023-11-22T13:27:55;6.13;;;5.63;;
12228;SDS011;6177;52.402;9.800;2023-11-22T13:30:21;6.17;;;5.57;;
12228;SDS011;6177;52.402;9.800;2023-11-22T13:32:51;5.03;;;4.63;;
12228;SDS011;6177;52.402;9.800;2023-11-22T13:35:17;5.43;;;5.00;;
12228;SDS011;6177;52.402;9.800;2023-11-22T13:37:46;5.00;;;4.70;;
12228;SDS011;6177;52.402;9.800;2023-11-22T13:40:13;4.83;;;4.53;;
12228;SDS011;6177;52.402;9.800;2023-11-22T13:42:41;4.47;;;4.17;;
12228;SDS011;6177;52.402;9.800;2023-11-22T13:45:08;5.07;;;4.77;;
12228;SDS011;6177;52.402;9.800;2023-11-22T13:47:34;5.20;;;4.80;;
12228;SDS011;6177;52.402;9.800;2023-11-22T13:50:00;6.07;;;5.67;;
12228;SDS011;6177;52.402;9.800;2023-11-22T13:52:25;5.13;;;4.73;;
12228;SDS011;6177;52.402;9.800;2023-11-22T13:54:51;5.57;;;5.07;;
12228;SDS011;6177;52.402;9.800;2023-11-22T13:57:21;5.07;;;4.73;;
12228;SDS011;6177;52.402;9.800;2023-11-22T13:59:47;5.30;;;4.90;;
12228;SDS011;6177;52.402;9.800;2023-11-22T14:02:12;5.70;;;5.17;;
12228;SDS011;6177;52.402;9.800;2023-11-22T14:04:38;5.40;;;5.10;;
12228;SDS011;6177;52.402;9.800;2023-11-22T14:07:04;5.03;;;4.73;;
12228;SDS011;6177;52.402;9.800;2023-11-22T14:09:32;5.37;;;4.97;;
12228;SDS011;6177;52.402;9.800;2023-11-22T14:12:01;5.93;;;5.37;;
12228;SDS011;6177;52.402;9.800;2023-11-22T14:14:28;5.50;;;5.20;;
12228;SDS011;6177;52.402;9.800;2023-11-22T14:16:53;5.10;;;4.80;;
12228;SDS011;6177;52.402;9.800;2023-11-22T14:19:19;5.07;;;4.67;;
12228;SDS011;6177;52.402;9.800;2023-11-22T14:21:44;5.93;;;5.43;;
12228;SDS011;6177;52.402;9.800;2023-11-22T14:24:10;6.03;;;5.63;;
12228;SDS011;6177;52.402;9.800;2023-11-22T14:26:36;5.53;;;4.97;;
12228;SDS011;6177;52.402;9.800;2023-11-22T14:29:02;5.43;;;5.13;;
12228;SDS011;6177;52.402;9.800;2023-11-22T14:31:28;5.87;;;5.37;;
12228;SDS011;6177;52.402;9.800;2023-11-22T14:33:54;5.83;;;5.43;;
12228;SDS011;6177;52.402;9.800;2023-11-22T14:36:22;6.33;;;5.73;;
12228;SDS011;6177;52.402;9.800;2023-11-22T14:38:49;5.47;;;5.07;;
12228;SDS011;6177;52.402;9.800;2023-11-22T14:41:19;5.60;;;5.03;;
12228;SDS011;6177;52.402;9.800;2023-11-22T14:43:45;5.53;;;5.10;;
12228;SDS011;6177;52.402;9.800;2023-11-22T14:46:11;5.63;;;5.23;;
12228;SDS011;6177;52.402;9.800;2023-11-22T14:48:36;5.30;;;5.00;;
12228;SDS011;6177;52.402;9.800;2023-11-22T14:51:03;5.17;;;4.60;;
12228;SDS011;6177;52.402;9.800;2023-11-22T14:53:28;5.23;;;4.83;;
12228;SDS011;6177;52.402;9.800;2023-11-22T14:55:54;5.30;;;5.00;;
12228;SDS011;6177;52.402;9.800;2023-11-22T14:58:19;5.13;;;4.73;;
12228;SDS011;6177;52.402;9.800;2023-11-22T15:00:45;5.50;;;5.10;;
12228;SDS011;6177;52.402;9.800;2023-11-22T15:03:10;5.17;;;4.70;;